sensor_id;sensor_type;location;lat;lon;timestamp;pressure;altitude;pressure_sealevel;temperature;humidity
12666;BME280;58531;59.050;17.416;2024-02-23T00:01:04;98153.72;;;3.18;100.00
12666;BME280;58531;59.050;17.416;2024-02-23T00:03:34;98146.53;;;3.10;100.00
12666;BME280;58531;59.050;17.416;2024-02-23T00:06:02;98150.03;;;3.16;100.00
12666;BME280;58531;59.050;17.416;2024-02-23T00:08:30;98133.94;;;3.14;100.00
12666;BME280;58531;59.050;17.416;2024-02-23T00:10:57;98126.47;;;3.12;100.00
12666;BME280;58531;59.050;17.416;2024-02-23T00:13:24;98111.84;;;3.11;100.00
12666;BME280;58531;59.050;17.416;2024-02-23T00:15:51;98123.66;;;3.16;100.00
12666;BME280;58531;59.050;17.416;2024-02-23T00:18:18;98124.09;;;3.23;100.00
12666;BME280;58531;59.050;17.416;2024-02-23T00:20:44;98123.53;;;3.19;100.00
12666;BME280;58531;59.050;17.416;2024-02-23T00:23:10;98109.16;;;3.20;100.00
12666;BME280;58531;59.050;17.416;2024-02-23T00:25:39;98105.50;;;3.18;100.00
12666;BME280;58531;59.050;17.416;2024-02-23T00:28:06;98100.69;;;3.16;100.00
12666;BME280;58531;59.050;17.416;2024-02-23T00:30:33;98105.66;;;3.14;100.00
12666;BME280;58531;59.050;17.416;2024-02-23T00:32:59;98086.44;;;3.23;100.00
12666;BME280;58531;59.050;17.416;2024-02-23T00:35:26;98077.25;;;3.18;100.00
12666;BME280;58531;59.050;17.416;2024-02-23T00:37:53;98069.31;;;3.18;100.00
12666;BME280;58531;59.050;17.416;2024-02-23T00:40:20;98056.56;;;3.17;100.00
12666;BME280;58531;59.050;17.416;2024-02-23T00:42:50;98042.97;;;3.18;100.00
12666;BME280;58531;59.050;17.416;2024-02-23T00:45:17;98050.97;;;3.24;100.00
12666;BME280;58531;59.050;17.416;2024-02-23T00:47:44;98031.53;;;3.21;100.00
12666;BME280;58531;59.050;17.416;2024-02-23T00:50:12;98029.09;;;3.32;100.00
12666;BME280;58531;59.050;17.416;2024-02-23T00:52:39;98026.63;;;3.29;100.00
12666;BME280;58531;59.050;17.416;2024-02-23T00:55:07;98037.50;;;3.22;100.00
12666;BME280;58531;59.050;17.416;2024-02-23T00:57:34;98034.75;;;3.16;100.00
12666;BME280;58531;59.050;17.416;2024-02-23T01:00:04;98034.00;;;3.16;100.00
12666;BME280;58531;59.050;17.416;2024-02-23T01:02:31;98030.06;;;3.20;100.00
12666;BME280;58531;59.050;17.416;2024-02-23T01:04:59;98029.91;;;3.15;100.00
12666;BME280;58531;59.050;17.416;2024-02-23T01:07:26;98025.81;;;3.14;100.00
12666;BME280;58531;59.050;17.416;2024-02-23T01:09:53;98023.16;;;3.23;100.00
12666;BME280;58531;59.050;17.416;2024-02-23T01:12:19;98004.25;;;3.24;100.00
12666;BME280;58531;59.050;17.416;2024-02-23T01:14:46;98016.53;;;3.27;100.00
12666;BME280;58531;59.050;17.416;2024-02-23T01:17:15;98006.94;;;3.15;100.00
12666;BME280;58531;59.050;17.416;2024-02-23T01:19:43;98010.00;;;3.14;100.00
12666;BME280;58531;59.050;17.416;2024-02-23T01:22:10;97994.03;;;3.17;100.00
12666;BME280;58531;59.050;17.416;2024-02-23T01:24:37;97983.22;;;3.15;100.00
12666;BME280;58531;59.050;17.416;2024-02-23T01:27:04;97989.16;;;3.25;100.00
12666;BME280;58531;59.050;17.416;2024-02-23T01:29:31;97977.31;;;3.20;100.00
12666;BME280;58531;59.050;17.416;2024-02-23T01:31:58;97964.56;;;3.19;100.00
12666;BME280;58531;59.050;17.416;2024-02-23T01:34:26;97951.66;;;3.21;100.00
12666;BME280;58531;59.050;17.416;2024-02-23T01:36:53;97945.69;;;3.20;100.00
12666;BME280;58531;59.050;17.416;2024-02-23T01:39:20;97942.47;;;3.16;100.00
12666;BME280;58531;59.050;17.416;2024-02-23T01:41:47;97935.84;;;3.21;100.00
12666;BME280;58531;59.050;17.416;2024-02-23T01:44:14;97932.78;;;3.22;100.00
12666;BME280;58531;59.050;17.416;2024-02-23T01:46:43;97927.22;;;3.20;100.00
12666;BME280;58531;59.050;17.416;2024-02-23T01:49:10;97923.13;;;3.19;100.00
12666;BME280;58531;59.050;17.416;2024-02-23T01:51:38;97923.84;;;3.20;100.00
12666;BME280;58531;59.050;17.416;2024-02-23T01:54:05;97919.13;;;3.24;100.00
12666;BME280;58531;59.050;17.416;2024-02-23T01:56:32;97920.59;;;3.25;100.00
12666;BME280;58531;59.050;17.416;2024-02-23T01:59:02;97919.13;;;3.24;100.00
12666;BME280;58531;59.050;17.416;2024-02-23T02:01:30;97909.31;;;3.24;100.00
12666;BME280;58531;59.050;17.416;2024-02-23T02:03:57;97910.50;;;3.23;100.00
12666;BME280;58531;59.050;17.416;2024-02-23T02:06:24;97909.13;;;3.28;100.00
12666;BME280;58531;59.050;17.416;2024-02-23T02:08:53;97903.78;;;3.22;100.00
12666;BME280;58531;59.050;17.416;2024-02-23T02:11:20;97908.84;;;3.26;100.00
12666;BME280;58531;59.050;17.416;2024-02-23T02:13:47;97901.69;;;3.26;100.00
12666;BME280;58531;59.050;17.416;2024-02-23T02:16:13;97889.22;;;3.27;100.00
12666;BME280;58531;59.050;17.416;2024-02-23T02:18:40;97890.31;;;3.20;100.00
12666;BME280;58531;59.050;17.416;2024-02-23T02:21:07;97889.59;;;3.34;100.00
12666;BME280;58531;59.050;17.416;2024-02-23T02:23:34;97886.59;;;3.27;100.00
12666;BME280;58531;59.050;17.416;2024-02-23T02:26:04;97889.84;;;3.22;100.00
12666;BME280;58531;59.050;17.416;2024-02-23T02:28:33;97894.56;;;3.18;100.00
12666;BME280;58531;59.050;17.416;2024-02-23T02:31:00;97878.91;;;3.14;100.00
12666;BME280;58531;59.050;17.416;2024-02-23T02:33:28;97878.03;;;3.17;100.00
12666;BME280;58531;59.050;17.416;2024-02-23T02:35:55;97883.66;;;3.25;100.00
12666;BME280;58531;59.050;17.416;2024-02-23T02:38:22;97874.41;;;3.29;100.00
12666;BME280;58531;59.050;17.416;2024-02-23T02:40:49;97852.91;;;3.22;100.00
12666;BME280;58531;59.050;17.416;2024-02-23T02:43:17;97846.59;;;3.28;100.00
12666;BME280;58531;59.050;17.416;2024-02-23T02:45:44;97845.75;;;3.22;100.00
12666;BME280;58531;59.050;17.416;2024-02-23T02:48:11;97830.94;;;3.25;100.00
12666;BME280;58531;59.050;17.416;2024-02-23T02:50:38;97824.66;;;3.22;100.00
12666;BME280;58531;59.050;17.416;2024-02-23T02:53:05;97816.41;;;3.29;100.00
12666;BME280;58531;59.050;17.416;2024-02-23T02:55:32;97816.41;;;3.29;100.00
12666;BME280;58531;59.050;17.416;2024-02-23T02:57:59;97798.72;;;3.21;100.00
12666;BME280;58531;59.050;17.416;2024-02-23T03:00:27;97795.56;;;3.31;100.00
12666;BME280;58531;59.050;17.416;2024-02-23T03:02:54;97794.38;;;3.32;100.00
12666;BME280;58531;59.050;17.416;2024-02-23T03:05:21;97784.47;;;3.27;100.00
12666;BME280;58531;59.050;17.416;2024-02-23T03:07:47;97791.22;;;3.28;100.00
12666;BME280;58531;59.050;17.416;2024-02-23T03:10:14;97788.19;;;3.35;100.00
12666;BME280;58531;59.050;17.416;2024-02-23T03:12:42;97791.09;;;3.37;100.00
12666;BME280;58531;59.050;17.416;2024-02-23T03:15:09;97786.22;;;3.30;100.00
12666;BME280;58531;59.050;17.416;2024-02-23T03:17:38;97777.81;;;3.32;100.00
12666;BME280;58531;59.050;17.416;2024-02-23T03:20:05;97773.94;;;3.27;100.00
12666;BME280;58531;59.050;17.416;2024-02-23T03:22:36;97773.09;;;3.36;100.00
12666;BME280;58531;59.050;17.416;2024-02-23T03:25:04;97758.38;;;3.29;100.00
12666;BME280;58531;59.050;17.416;2024-02-23T03:27:36;97759.56;;;3.43;100.00
12666;BME280;58531;59.050;17.416;2024-02-23T03:30:07;97759.19;;;3.35;100.00
12666;BME280;58531;59.050;17.416;2024-02-23T03:32:34;97750.19;;;3.42;100.00
12666;BME280;58531;59.050;17.416;2024-02-23T03:35:06;97743.25;;;3.44;100.00
12666;BME280;58531;59.050;17.416;2024-02-23T03:37:33;97747.81;;;3.44;100.00
12666;BME280;58531;59.050;17.416;2024-02-23T03:40:00;97740.72;;;3.35;100.00
12666;BME280;58531;59.050;17.416;2024-02-23T03:42:27;97749.66;;;3.38;100.00
12666;BME280;58531;59.050;17.416;2024-02-23T03:44:54;97752.91;;;3.33;100.00
12666;BME280;58531;59.050;17.416;2024-02-23T03:47:21;97740.91;;;3.32;100.00
12666;BME280;58531;59.050;17.416;2024-02-23T03:49:51;97740.44;;;3.33;100.00
12666;BME280;58531;59.050;17.416;2024-02-23T03:52:19;97736.53;;;3.29;100.00
12666;BME280;58531;59.050;17.416;2024-02-23T03:54:46;97725.72;;;3.27;100.00
12666;BME280;58531;59.050;17.416;2024-02-23T03:57:13;97723.81;;;3.27;100.00
12666;BME280;58531;59.050;17.416;2024-02-23T03:59:51;97714.53;;;3.32;100.00
12666;BME280;58531;59.050;17.416;2024-02-23T04:02:18;97720.72;;;3.29;100.00
12666;BME280;58531;59.050;17.416;2024-02-23T04:04:46;97714.47;;;3.26;100.00
12666;BME280;58531;59.050;17.416;2024-02-23T04:07:12;97715.25;;;3.32;100.00
12666;BME280;58531;59.050;17.416;2024-02-23T04:09:41;97708.78;;;3.33;100.00
12666;BME280;58531;59.050;17.416;2024-02-23T04:12:08;97703.78;;;3.35;100.00
12666;BME280;58531;59.050;17.416;2024-02-23T04:14:34;97705.63;;;3.29;100.00
12666;BME280;58531;59.050;17.416;2024-02-23T04:17:02;97693.44;;;3.32;100.00
12666;BME280;58531;59.050;17.416;2024-02-23T04:19:29;97681.44;;;3.31;100.00
12666;BME280;58531;59.050;17.416;2024-02-23T04:21:56;97691.97;;;3.31;100.00
12666;BME280;58531;59.050;17.416;2024-02-23T04:24:22;97679.06;;;3.33;100.00
12666;BME280;58531;59.050;17.416;2024-02-23T04:26:51;97671.78;;;3.28;100.00
12666;BME280;58531;59.050;17.416;2024-02-23T04:29:18;97681.16;;;3.29;100.00
12666;BME280;58531;59.050;17.416;2024-02-23T04:31:45;97681.25;;;3.34;100.00
12666;BME280;58531;59.050;17.416;2024-02-23T04:34:11;97678.81;;;3.31;100.00
12666;BME280;58531;59.050;17.416;2024-02-23T04:36:38;97674.97;;;3.32;100.00
12666;BME280;58531;59.050;17.416;2024-02-23T04:39:05;97686.44;;;3.29;100.00
12666;BME280;58531;59.050;17.416;2024-02-23T04:41:32;97670.81;;;3.25;100.00
12666;BME280;58531;59.050;17.416;2024-02-23T04:44:00;97676.34;;;3.27;100.00
12666;BME280;58531;59.050;17.416;2024-02-23T04:46:27;97674.97;;;3.32;100.00
12666;BME280;58531;59.050;17.416;2024-02-23T04:48:55;97661.25;;;3.28;100.00
12666;BME280;58531;59.050;17.416;2024-02-23T04:51:22;97661.44;;;3.24;100.00
12666;BME280;58531;59.050;17.416;2024-02-23T04:53:49;97657.34;;;3.23;100.00
12666;BME280;58531;59.050;17.416;2024-02-23T04:56:18;97652.16;;;3.29;100.00
12666;BME280;58531;59.050;17.416;2024-02-23T04:58:46;97646.78;;;3.38;100.00
12666;BME280;58531;59.050;17.416;2024-02-23T05:01:14;97641.25;;;3.36;100.00
12666;BME280;58531;59.050;17.416;2024-02-23T05:03:41;97611.63;;;3.26;100.00
12666;BME280;58531;59.050;17.416;2024-02-23T05:06:08;97607.59;;;3.31;100.00
12666;BME280;58531;59.050;17.416;2024-02-23T05:08:34;97610.56;;;3.38;100.00
12666;BME280;58531;59.050;17.416;2024-02-23T05:11:04;97599.03;;;3.36;100.00
12666;BME280;58531;59.050;17.416;2024-02-23T05:13:30;97611.03;;;3.37;100.00
12666;BME280;58531;59.050;17.416;2024-02-23T05:16:00;97604.50;;;3.32;100.00
12666;BME280;58531;59.050;17.416;2024-02-23T05:18:31;97604.09;;;3.39;100.00
12666;BME280;58531;59.050;17.416;2024-02-23T05:20:58;97590.66;;;3.37;100.00
12666;BME280;58531;59.050;17.416;2024-02-23T05:23:24;97585.59;;;3.34;100.00
12666;BME280;58531;59.050;17.416;2024-02-23T05:25:51;97592.38;;;3.40;100.00
12666;BME280;58531;59.050;17.416;2024-02-23T05:28:18;97593.56;;;3.39;100.00
12666;BME280;58531;59.050;17.416;2024-02-23T05:30:45;97590.13;;;3.33;100.00
12666;BME280;58531;59.050;17.416;2024-02-23T05:33:12;97590.47;;;3.41;100.00
12666;BME280;58531;59.050;17.416;2024-02-23T05:35:40;97574.84;;;3.37;100.00
12666;BME280;58531;59.050;17.416;2024-02-23T05:38:07;97588.94;;;3.34;100.00
12666;BME280;58531;59.050;17.416;2024-02-23T05:40:34;97571.47;;;3.37;100.00
12666;BME280;58531;59.050;17.416;2024-02-23T05:43:01;97578.66;;;3.36;100.00
12666;BME280;58531;59.050;17.416;2024-02-23T05:45:28;97581.50;;;3.33;100.00
12666;BME280;58531;59.050;17.416;2024-02-23T05:47:55;97565.03;;;3.38;100.00
12666;BME280;58531;59.050;17.416;2024-02-23T05:50:22;97559.91;;;3.34;100.00
12666;BME280;58531;59.050;17.416;2024-02-23T05:52:50;97565.72;;;3.38;100.00
12666;BME280;58531;59.050;17.416;2024-02-23T05:55:18;97562.66;;;3.40;100.00
12666;BME280;58531;59.050;17.416;2024-02-23T05:57:45;97547.53;;;3.40;100.00
12666;BME280;58531;59.050;17.416;2024-02-23T06:00:13;97543.72;;;3.41;100.00
12666;BME280;58531;59.050;17.416;2024-02-23T06:02:41;97538.97;;;3.45;100.00
12666;BME280;58531;59.050;17.416;2024-02-23T06:05:08;97545.16;;;3.42;100.00
12666;BME280;58531;59.050;17.416;2024-02-23T06:07:35;97546.63;;;3.43;100.00
12666;BME280;58531;59.050;17.416;2024-02-23T06:10:04;97545.69;;;3.46;100.00
12666;BME280;58531;59.050;17.416;2024-02-23T06:12:31;97550.78;;;3.49;100.00
12666;BME280;58531;59.050;17.416;2024-02-23T06:14:58;97539.13;;;3.56;100.00
12666;BME280;58531;59.050;17.416;2024-02-23T06:17:25;97532.00;;;3.62;100.00
12666;BME280;58531;59.050;17.416;2024-02-23T06:19:52;97523.41;;;3.67;100.00
12666;BME280;58531;59.050;17.416;2024-02-23T06:22:22;97500.47;;;3.73;100.00
12666;BME280;58531;59.050;17.416;2024-02-23T06:24:51;97510.00;;;3.70;100.00
12666;BME280;58531;59.050;17.416;2024-02-23T06:27:19;97496.41;;;3.77;100.00
12666;BME280;58531;59.050;17.416;2024-02-23T06:29:47;97501.00;;;3.77;100.00
12666;BME280;58531;59.050;17.416;2024-02-23T06:32:14;97502.00;;;3.85;100.00
12666;BME280;58531;59.050;17.416;2024-02-23T06:34:41;97492.41;;;3.82;100.00
12666;BME280;58531;59.050;17.416;2024-02-23T06:37:11;97485.19;;;3.82;100.00
12666;BME280;58531;59.050;17.416;2024-02-23T06:39:39;97495.28;;;3.84;100.00
12666;BME280;58531;59.050;17.416;2024-02-23T06:42:06;97491.72;;;3.87;100.00
12666;BME280;58531;59.050;17.416;2024-02-23T06:44:35;97484.97;;;3.86;100.00
12666;BME280;58531;59.050;17.416;2024-02-23T06:47:02;97487.63;;;3.86;100.00
12666;BME280;58531;59.050;17.416;2024-02-23T06:49:29;97471.38;;;3.93;100.00
12666;BME280;58531;59.050;17.416;2024-02-23T06:51:56;97486.00;;;3.88;100.00
12666;BME280;58531;59.050;17.416;2024-02-23T06:54:22;97487.22;;;3.93;100.00
12666;BME280;58531;59.050;17.416;2024-02-23T06:56:49;97497.50;;;3.91;100.00
12666;BME280;58531;59.050;17.416;2024-02-23T06:59:16;97497.47;;;3.85;100.00
12666;BME280;58531;59.050;17.416;2024-02-23T07:01:51;97497.50;;;3.91;100.00
12666;BME280;58531;59.050;17.416;2024-02-23T07:04:18;97487.75;;;3.97;100.00
12666;BME280;58531;59.050;17.416;2024-02-23T07:06:48;97487.75;;;3.97;100.00
12666;BME280;58531;59.050;17.416;2024-02-23T07:09:15;97485.38;;;3.99;100.00
12666;BME280;58531;59.050;17.416;2024-02-23T07:11:41;97476.25;;;4.00;100.00
12666;BME280;58531;59.050;17.416;2024-02-23T07:14:11;97469.38;;;4.08;100.00
12666;BME280;58531;59.050;17.416;2024-02-23T07:16:39;97484.25;;;4.05;100.00
12666;BME280;58531;59.050;17.416;2024-02-23T07:19:08;97489.31;;;4.09;100.00
12666;BME280;58531;59.050;17.416;2024-02-23T07:21:35;97486.91;;;4.11;100.00
12666;BME280;58531;59.050;17.416;2024-02-23T07:24:02;97493.66;;;4.12;100.00
12666;BME280;58531;59.050;17.416;2024-02-23T07:26:28;97477.81;;;4.12;100.00
12666;BME280;58531;59.050;17.416;2024-02-23T07:28:55;97485.69;;;4.06;100.00
12666;BME280;58531;59.050;17.416;2024-02-23T07:31:22;97482.56;;;4.08;100.00
12666;BME280;58531;59.050;17.416;2024-02-23T07:33:49;97503.69;;;4.08;100.00
12666;BME280;58531;59.050;17.416;2024-02-23T07:36:18;97482.34;;;4.11;100.00
12666;BME280;58531;59.050;17.416;2024-02-23T07:38:45;97485.22;;;4.08;100.00
12666;BME280;58531;59.050;17.416;2024-02-23T07:41:12;97480.91;;;4.10;100.00
12666;BME280;58531;59.050;17.416;2024-02-23T07:43:39;97496.47;;;4.08;100.00
12666;BME280;58531;59.050;17.416;2024-02-23T07:46:06;97517.38;;;4.06;100.00
12666;BME280;58531;59.050;17.416;2024-02-23T07:48:34;97514.47;;;4.04;100.00
12666;BME280;58531;59.050;17.416;2024-02-23T07:51:02;97514.66;;;4.01;100.00
12666;BME280;58531;59.050;17.416;2024-02-23T07:53:30;97507.66;;;3.98;100.00
12666;BME280;58531;59.050;17.416;2024-02-23T07:55:57;97509.34;;;3.95;100.00
12666;BME280;58531;59.050;17.416;2024-02-23T07:58:27;97518.38;;;3.89;100.00
12666;BME280;58531;59.050;17.416;2024-02-23T08:00:54;97513.84;;;3.89;100.00
12666;BME280;58531;59.050;17.416;2024-02-23T08:03:22;97523.47;;;3.92;100.00
12666;BME280;58531;59.050;17.416;2024-02-23T08:05:49;97512.44;;;3.94;100.00
12666;BME280;58531;59.050;17.416;2024-02-23T08:08:15;97521.09;;;3.94;100.00
12666;BME280;58531;59.050;17.416;2024-02-23T08:10:44;97517.31;;;4.01;100.00
12666;BME280;58531;59.050;17.416;2024-02-23T08:13:11;97513.94;;;4.00;100.00
12666;BME280;58531;59.050;17.416;2024-02-23T08:15:37;97529.97;;;3.97;100.00
12666;BME280;58531;59.050;17.416;2024-02-23T08:18:05;97543.19;;;3.97;100.00
12666;BME280;58531;59.050;17.416;2024-02-23T08:20:32;97541.06;;;4.01;100.00
12666;BME280;58531;59.050;17.416;2024-02-23T08:22:59;97529.06;;;4.00;100.00
12666;BME280;58531;59.050;17.416;2024-02-23T08:25:25;97530.25;;;3.99;100.00
12666;BME280;58531;59.050;17.416;2024-02-23T08:27:56;97533.88;;;4.01;100.00
12666;BME280;58531;59.050;17.416;2024-02-23T08:30:24;97541.06;;;4.01;100.00
12666;BME280;58531;59.050;17.416;2024-02-23T08:32:51;97547.78;;;4.02;100.00
12666;BME280;58531;59.050;17.416;2024-02-23T08:35:18;97545.41;;;4.04;100.00
12666;BME280;58531;59.050;17.416;2024-02-23T08:37:45;97572.88;;;4.12;100.00
12666;BME280;58531;59.050;17.416;2024-02-23T08:40:12;97551.53;;;4.15;100.00
12666;BME280;58531;59.050;17.416;2024-02-23T08:42:39;97554.94;;;4.21;100.00
12666;BME280;58531;59.050;17.416;2024-02-23T08:45:08;97544.19;;;4.25;100.00
12666;BME280;58531;59.050;17.416;2024-02-23T08:47:37;97559.47;;;4.41;100.00
12666;BME280;58531;59.050;17.416;2024-02-23T08:50:06;97579.22;;;4.45;100.00
12666;BME280;58531;59.050;17.416;2024-02-23T08:52:33;97576.69;;;4.56;100.00
12666;BME280;58531;59.050;17.416;2024-02-23T08:54:59;97565.09;;;4.54;100.00
12666;BME280;58531;59.050;17.416;2024-02-23T08:57:27;97572.78;;;4.52;100.00
12666;BME280;58531;59.050;17.416;2024-02-23T08:59:54;97570.22;;;4.63;100.00
12666;BME280;58531;59.050;17.416;2024-02-23T09:02:24;97582.72;;;4.62;100.00
12666;BME280;58531;59.050;17.416;2024-02-23T09:04:51;97594.69;;;4.58;100.00
12666;BME280;58531;59.050;17.416;2024-02-23T09:07:18;97605.00;;;4.56;100.00
12666;BME280;58531;59.050;17.416;2024-02-23T09:09:46;97606.94;;;4.55;100.00
12666;BME280;58531;59.050;17.416;2024-02-23T09:12:14;97621.91;;;4.63;100.00
12666;BME280;58531;59.050;17.416;2024-02-23T09:14:41;97629.47;;;4.76;100.00
12666;BME280;58531;59.050;17.416;2024-02-23T09:17:08;97622.09;;;4.85;100.00
12666;BME280;58531;59.050;17.416;2024-02-23T09:19:38;97617.16;;;4.98;100.00
12666;BME280;58531;59.050;17.416;2024-02-23T09:22:05;97633.06;;;5.04;100.00
12666;BME280;58531;59.050;17.416;2024-02-23T09:24:32;97658.66;;;5.18;100.00
12666;BME280;58531;59.050;17.416;2024-02-23T09:26:58;97666.59;;;5.18;100.00
12666;BME280;58531;59.050;17.416;2024-02-23T09:29:25;97679.09;;;5.17;100.00
12666;BME280;58531;59.050;17.416;2024-02-23T09:31:52;97692.78;;;5.16;100.00
12666;BME280;58531;59.050;17.416;2024-02-23T09:34:19;97693.53;;;5.16;100.00
12666;BME280;58531;59.050;17.416;2024-02-23T09:36:47;97699.38;;;5.26;100.00
12666;BME280;58531;59.050;17.416;2024-02-23T09:39:14;97706.53;;;5.20;100.00
12666;BME280;58531;59.050;17.416;2024-02-23T09:41:42;97712.75;;;5.17;100.00
12666;BME280;58531;59.050;17.416;2024-02-23T09:44:09;97720.25;;;5.18;100.00
12666;BME280;58531;59.050;17.416;2024-02-23T09:46:37;97720.28;;;5.24;100.00
12666;BME280;58531;59.050;17.416;2024-02-23T09:49:04;97729.09;;;5.41;100.00
12666;BME280;58531;59.050;17.416;2024-02-23T09:51:34;97737.56;;;5.50;100.00
12666;BME280;58531;59.050;17.416;2024-02-23T09:54:03;97745.50;;;5.50;100.00
12666;BME280;58531;59.050;17.416;2024-02-23T09:56:30;97751.06;;;5.52;100.00
12666;BME280;58531;59.050;17.416;2024-02-23T09:59:01;97749.59;;;5.51;100.00
12666;BME280;58531;59.050;17.416;2024-02-23T10:01:29;97750.81;;;5.50;100.00
12666;BME280;58531;59.050;17.416;2024-02-23T10:04:00;97760.47;;;5.53;100.00
12666;BME280;58531;59.050;17.416;2024-02-23T10:06:28;97764.56;;;5.54;100.00
12666;BME280;58531;59.050;17.416;2024-02-23T10:08:55;97768.66;;;5.55;100.00
12666;BME280;58531;59.050;17.416;2024-02-23T10:11:24;97783.34;;;5.56;100.00
12666;BME280;58531;59.050;17.416;2024-02-23T10:13:52;97779.03;;;5.59;100.00
12666;BME280;58531;59.050;17.416;2024-02-23T10:16:19;97793.94;;;5.56;100.00
12666;BME280;58531;59.050;17.416;2024-02-23T10:18:46;97789.38;;;5.57;100.00
12666;BME280;58531;59.050;17.416;2024-02-23T10:21:14;97803.59;;;5.59;100.00
12666;BME280;58531;59.050;17.416;2024-02-23T10:23:44;97799.31;;;5.67;100.00
12666;BME280;58531;59.050;17.416;2024-02-23T10:26:12;97812.81;;;5.69;100.00
12666;BME280;58531;59.050;17.416;2024-02-23T10:28:40;97819.16;;;5.77;100.00
12666;BME280;58531;59.050;17.416;2024-02-23T10:31:07;97834.84;;;5.81;100.00
12666;BME280;58531;59.050;17.416;2024-02-23T10:33:34;97828.59;;;5.83;100.00
12666;BME280;58531;59.050;17.416;2024-02-23T10:36:05;97840.69;;;5.90;100.00
12666;BME280;58531;59.050;17.416;2024-02-23T10:38:35;97843.41;;;5.95;100.00
12666;BME280;58531;59.050;17.416;2024-02-23T10:41:05;97847.94;;;5.95;100.00
12666;BME280;58531;59.050;17.416;2024-02-23T10:43:39;97859.56;;;6.03;100.00
12666;BME280;58531;59.050;17.416;2024-02-23T10:46:09;97871.69;;;6.09;100.00
12666;BME280;58531;59.050;17.416;2024-02-23T10:48:39;97876.59;;;6.22;100.00
12666;BME280;58531;59.050;17.416;2024-02-23T10:51:07;97881.22;;;6.27;100.00
12666;BME280;58531;59.050;17.416;2024-02-23T10:53:35;97881.59;;;6.51;100.00
12666;BME280;58531;59.050;17.416;2024-02-23T10:56:03;97900.31;;;6.73;100.00
12666;BME280;58531;59.050;17.416;2024-02-23T10:58:31;97907.13;;;6.85;100.00
12666;BME280;58531;59.050;17.416;2024-02-23T11:00:59;97912.19;;;6.83;100.00
12666;BME280;58531;59.050;17.416;2024-02-23T11:03:30;97916.50;;;6.80;100.00
12666;BME280;58531;59.050;17.416;2024-02-23T11:05:59;97923.03;;;6.85;100.00
12666;BME280;58531;59.050;17.416;2024-02-23T11:08:27;97930.25;;;6.79;100.00
12666;BME280;58531;59.050;17.416;2024-02-23T11:10:54;97945.13;;;6.71;100.00
12666;BME280;58531;59.050;17.416;2024-02-23T11:13:29;97945.06;;;6.60;100.00
12666;BME280;58531;59.050;17.416;2024-02-23T11:16:01;97949.84;;;6.56;100.00
12666;BME280;58531;59.050;17.416;2024-02-23T11:18:30;97954.13;;;6.48;100.00
12666;BME280;58531;59.050;17.416;2024-02-23T11:21:00;97953.16;;;6.45;100.00
12666;BME280;58531;59.050;17.416;2024-02-23T11:23:27;97957.25;;;6.46;100.00
12666;BME280;58531;59.050;17.416;2024-02-23T11:26:06;97969.50;;;6.44;100.00
12666;BME280;58531;59.050;17.416;2024-02-23T11:28:42;97977.19;;;6.42;100.00
12666;BME280;58531;59.050;17.416;2024-02-23T11:31:13;97978.41;;;6.41;100.00
12666;BME280;58531;59.050;17.416;2024-02-23T11:33:47;98000.38;;;6.47;100.00
12666;BME280;58531;59.050;17.416;2024-02-23T11:36:22;97988.06;;;6.44;100.00
12666;BME280;58531;59.050;17.416;2024-02-23T11:38:55;97998.94;;;6.46;100.00
12666;BME280;58531;59.050;17.416;2024-02-23T11:41:23;97999.66;;;6.46;100.00
12666;BME280;58531;59.050;17.416;2024-02-23T11:43:51;98016.81;;;6.51;100.00
12666;BME280;58531;59.050;17.416;2024-02-23T11:46:18;98027.94;;;6.55;100.00
12666;BME280;58531;59.050;17.416;2024-02-23T11:48:47;98034.44;;;6.54;100.00
12666;BME280;58531;59.050;17.416;2024-02-23T11:51:19;98033.22;;;6.55;100.00
12666;BME280;58531;59.050;17.416;2024-02-23T11:53:46;98028.25;;;6.62;100.00
12666;BME280;58531;59.050;17.416;2024-02-23T11:56:14;98045.09;;;6.59;100.00
12666;BME280;58531;59.050;17.416;2024-02-23T11:58:41;98053.25;;;6.56;100.00
12666;BME280;58531;59.050;17.416;2024-02-23T12:01:08;98064.84;;;6.58;100.00
12666;BME280;58531;59.050;17.416;2024-02-23T12:03:35;98065.97;;;6.77;100.00
12666;BME280;58531;59.050;17.416;2024-02-23T12:06:05;98081.31;;;6.98;100.00
12666;BME280;58531;59.050;17.416;2024-02-23T12:08:33;98079.03;;;7.11;100.00
12666;BME280;58531;59.050;17.416;2024-02-23T12:11:03;98086.81;;;7.20;100.00
12666;BME280;58531;59.050;17.416;2024-02-23T12:13:31;98097.94;;;7.24;100.00
12666;BME280;58531;59.050;17.416;2024-02-23T12:15:58;98100.59;;;7.24;100.00
12666;BME280;58531;59.050;17.416;2024-02-23T12:18:25;98096.91;;;7.16;100.00
12666;BME280;58531;59.050;17.416;2024-02-23T12:20:53;98090.88;;;7.16;100.00
12666;BME280;58531;59.050;17.416;2024-02-23T12:23:21;98099.75;;;7.07;100.00
12666;BME280;58531;59.050;17.416;2024-02-23T12:25:56;98099.44;;;7.00;100.00
12666;BME280;58531;59.050;17.416;2024-02-23T12:28:24;98104.69;;;6.95;100.00
12666;BME280;58531;59.050;17.416;2024-02-23T12:30:59;98115.97;;;6.90;100.00
12666;BME280;58531;59.050;17.416;2024-02-23T12:33:27;98113.81;;;6.88;100.00
12666;BME280;58531;59.050;17.416;2024-02-23T12:35:55;98107.78;;;6.88;100.00
12666;BME280;58531;59.050;17.416;2024-02-23T12:38:23;98110.69;;;6.90;100.00
12666;BME280;58531;59.050;17.416;2024-02-23T12:40:50;98107.78;;;6.88;100.00
12666;BME280;58531;59.050;17.416;2024-02-23T12:43:17;98116.88;;;6.81;100.00
12666;BME280;58531;59.050;17.416;2024-02-23T12:45:46;98120.69;;;6.75;100.00
12666;BME280;58531;59.050;17.416;2024-02-23T12:48:15;98125.00;;;6.72;100.00
12666;BME280;58531;59.050;17.416;2024-02-23T12:50:41;98127.44;;;6.76;100.00
12666;BME280;58531;59.050;17.416;2024-02-23T12:53:11;98130.09;;;6.76;100.00